sensor_id;sensor_type;location;lat;lon;timestamp;P1;durP1;ratioP1;P2;durP2;ratioP2
39196;SDS011;42889;51.112;13.772;2022-11-15T00:02:15;38.30;;;15.30;;
39196;SDS011;42889;51.112;13.772;2022-11-15T00:05:02;34.85;;;15.48;;
39196;SDS011;42889;51.112;13.772;2022-11-15T00:07:48;32.72;;;15.18;;
39196;SDS011;42889;51.112;13.772;2022-11-15T00:10:40;36.85;;;16.52;;
39196;SDS011;42889;51.112;13.772;2022-11-15T00:13:26;35.40;;;15.13;;
39196;SDS011;42889;51.112;13.772;2022-11-15T00:16:12;36.17;;;16.50;;
39196;SDS011;42889;51.112;13.772;2022-11-15T00:18:57;38.58;;;17.35;;
39196;SDS011;42889;51.112;13.772;2022-11-15T00:21:44;40.97;;;17.05;;
39196;SDS011;42889;51.112;13.772;2022-11-15T00:24:30;40.80;;;17.58;;
39196;SDS011;42889;51.112;13.772;2022-11-15T00:27:16;40.25;;;17.67;;
39196;SDS011;42889;51.112;13.772;2022-11-15T00:30:13;38.90;;;17.42;;
39196;SDS011;42889;51.112;13.772;2022-11-15T00:33:03;41.17;;;17.40;;
39196;SDS011;42889;51.112;13.772;2022-11-15T00:35:51;40.40;;;17.52;;
39196;SDS011;42889;51.112;13.772;2022-11-15T00:38:38;37.20;;;16.85;;
39196;SDS011;42889;51.112;13.772;2022-11-15T00:41:25;41.67;;;18.58;;
39196;SDS011;42889;51.112;13.772;2022-11-15T00:44:11;38.33;;;16.77;;
39196;SDS011;42889;51.112;13.772;2022-11-15T00:46:57;44.97;;;18.85;;
39196;SDS011;42889;51.112;13.772;2022-11-15T00:49:45;45.60;;;18.95;;
39196;SDS011;42889;51.112;13.772;2022-11-15T00:52:31;45.55;;;19.95;;
39196;SDS011;42889;51.112;13.772;2022-11-15T00:55:17;45.78;;;19.95;;
39196;SDS011;42889;51.112;13.772;2022-11-15T00:58:04;46.58;;;19.67;;
39196;SDS011;42889;51.112;13.772;2022-11-15T01:00:49;47.08;;;19.90;;
39196;SDS011;42889;51.112;13.772;2022-11-15T01:03:35;43.42;;;18.90;;
39196;SDS011;42889;51.112;13.772;2022-11-15T01:06:22;45.72;;;19.00;;
39196;SDS011;42889;51.112;13.772;2022-11-15T01:09:27;44.28;;;18.55;;
39196;SDS011;42889;51.112;13.772;2022-11-15T01:12:13;42.05;;;19.23;;
39196;SDS011;42889;51.112;13.772;2022-11-15T01:14:58;46.35;;;19.33;;
39196;SDS011;42889;51.112;13.772;2022-11-15T01:17:44;37.55;;;16.27;;
39196;SDS011;42889;51.112;13.772;2022-11-15T01:20:30;44.92;;;18.35;;
39196;SDS011;42889;51.112;13.772;2022-11-15T01:23:16;44.28;;;18.90;;
39196;SDS011;42889;51.112;13.772;2022-11-15T01:26:02;46.13;;;19.98;;
39196;SDS011;42889;51.112;13.772;2022-11-15T01:28:50;43.47;;;18.48;;
39196;SDS011;42889;51.112;13.772;2022-11-15T01:34:47;45.78;;;18.50;;
39196;SDS011;42889;51.112;13.772;2022-11-15T01:37:33;42.58;;;18.67;;
39196;SDS011;42889;51.112;13.772;2022-11-15T01:40:18;46.42;;;18.70;;
39196;SDS011;42889;51.112;13.772;2022-11-15T01:43:27;39.92;;;16.65;;
39196;SDS011;42889;51.112;13.772;2022-11-15T01:49:11;42.65;;;17.02;;
39196;SDS011;42889;51.112;13.772;2022-11-15T01:52:01;41.35;;;17.75;;
39196;SDS011;42889;51.112;13.772;2022-11-15T01:58:02;38.25;;;16.83;;
39196;SDS011;42889;51.112;13.772;2022-11-15T02:00:50;37.53;;;16.95;;
39196;SDS011;42889;51.112;13.772;2022-11-15T02:03:51;39.35;;;16.20;;
39196;SDS011;42889;51.112;13.772;2022-11-15T02:07:16;44.72;;;17.50;;
39196;SDS011;42889;51.112;13.772;2022-11-15T02:10:31;39.58;;;16.52;;
39196;SDS011;42889;51.112;13.772;2022-11-15T02:13:16;38.35;;;15.65;;
39196;SDS011;42889;51.112;13.772;2022-11-15T02:25:17;41.40;;;16.45;;
39196;SDS011;42889;51.112;13.772;2022-11-15T02:37:45;37.17;;;15.30;;
39196;SDS011;42889;51.112;13.772;2022-11-15T02:41:24;37.25;;;14.77;;
39196;SDS011;42889;51.112;13.772;2022-11-15T02:44:47;36.67;;;15.80;;
39196;SDS011;42889;51.112;13.772;2022-11-15T02:47:34;38.63;;;15.50;;
39196;SDS011;42889;51.112;13.772;2022-11-15T02:50:28;37.15;;;14.50;;
39196;SDS011;42889;51.112;13.772;2022-11-15T02:53:27;33.40;;;14.82;;
39196;SDS011;42889;51.112;13.772;2022-11-15T02:56:13;38.42;;;16.02;;
39196;SDS011;42889;51.112;13.772;2022-11-15T03:06:01;38.92;;;15.35;;
39196;SDS011;42889;51.112;13.772;2022-11-15T03:09:08;33.72;;;13.60;;
39196;SDS011;42889;51.112;13.772;2022-11-15T03:12:48;34.22;;;14.25;;
39196;SDS011;42889;51.112;13.772;2022-11-15T03:15:46;30.63;;;13.68;;
39196;SDS011;42889;51.112;13.772;2022-11-15T03:19:04;36.90;;;15.23;;
39196;SDS011;42889;51.112;13.772;2022-11-15T03:21:57;37.70;;;15.52;;
39196;SDS011;42889;51.112;13.772;2022-11-15T03:25:19;39.70;;;15.68;;
39196;SDS011;42889;51.112;13.772;2022-11-15T03:28:33;35.88;;;14.55;;
39196;SDS011;42889;51.112;13.772;2022-11-15T03:31:39;33.83;;;15.40;;
39196;SDS011;42889;51.112;13.772;2022-11-15T03:34:50;39.25;;;15.13;;
39196;SDS011;42889;51.112;13.772;2022-11-15T03:37:44;33.28;;;14.23;;
39196;SDS011;42889;51.112;13.772;2022-11-15T03:40:36;32.50;;;14.27;;
39196;SDS011;42889;51.112;13.772;2022-11-15T03:43:47;34.35;;;14.20;;
39196;SDS011;42889;51.112;13.772;2022-11-15T03:49:59;39.05;;;14.90;;
39196;SDS011;42889;51.112;13.772;2022-11-15T03:52:49;40.63;;;15.00;;
39196;SDS011;42889;51.112;13.772;2022-11-15T03:55:36;33.40;;;14.55;;
39196;SDS011;42889;51.112;13.772;2022-11-15T03:58:23;37.13;;;14.40;;
39196;SDS011;42889;51.112;13.772;2022-11-15T04:01:09;32.63;;;13.40;;
39196;SDS011;42889;51.112;13.772;2022-11-15T04:03:54;30.75;;;13.70;;
39196;SDS011;42889;51.112;13.772;2022-11-15T04:06:40;35.38;;;14.63;;
39196;SDS011;42889;51.112;13.772;2022-11-15T04:09:25;34.05;;;13.60;;
39196;SDS011;42889;51.112;13.772;2022-11-15T04:12:11;31.67;;;13.82;;
39196;SDS011;42889;51.112;13.772;2022-11-15T04:14:59;32.35;;;13.48;;
39196;SDS011;42889;51.112;13.772;2022-11-15T04:17:57;34.10;;;13.93;;
39196;SDS011;42889;51.112;13.772;2022-11-15T04:20:42;30.10;;;12.63;;
39196;SDS011;42889;51.112;13.772;2022-11-15T04:23:46;34.22;;;12.38;;
39196;SDS011;42889;51.112;13.772;2022-11-15T04:26:38;31.60;;;13.18;;
39196;SDS011;42889;51.112;13.772;2022-11-15T04:29:24;30.27;;;12.43;;
39196;SDS011;42889;51.112;13.772;2022-11-15T04:32:24;30.95;;;12.45;;
39196;SDS011;42889;51.112;13.772;2022-11-15T04:35:09;26.80;;;11.77;;
39196;SDS011;42889;51.112;13.772;2022-11-15T04:37:55;28.70;;;12.13;;
39196;SDS011;42889;51.112;13.772;2022-11-15T04:40:42;29.13;;;12.50;;
39196;SDS011;42889;51.112;13.772;2022-11-15T04:43:28;29.15;;;12.32;;
39196;SDS011;42889;51.112;13.772;2022-11-15T04:46:15;32.28;;;12.60;;
39196;SDS011;42889;51.112;13.772;2022-11-15T04:49:00;31.10;;;12.27;;
39196;SDS011;42889;51.112;13.772;2022-11-15T04:51:46;30.88;;;13.05;;
39196;SDS011;42889;51.112;13.772;2022-11-15T04:54:32;32.38;;;13.15;;
39196;SDS011;42889;51.112;13.772;2022-11-15T04:57:18;34.38;;;12.85;;
39196;SDS011;42889;51.112;13.772;2022-11-15T05:00:05;33.00;;;12.75;;
39196;SDS011;42889;51.112;13.772;2022-11-15T05:03:14;29.45;;;12.52;;
39196;SDS011;42889;51.112;13.772;2022-11-15T05:06:31;33.25;;;13.68;;
39196;SDS011;42889;51.112;13.772;2022-11-15T05:09:40;31.45;;;13.02;;
39196;SDS011;42889;51.112;13.772;2022-11-15T05:12:41;32.15;;;12.70;;
39196;SDS011;42889;51.112;13.772;2022-11-15T05:15:27;26.50;;;11.80;;
39196;SDS011;42889;51.112;13.772;2022-11-15T05:18:12;28.35;;;11.43;;
39196;SDS011;42889;51.112;13.772;2022-11-15T05:21:22;26.10;;;11.40;;
39196;SDS011;42889;51.112;13.772;2022-11-15T05:24:09;26.70;;;12.27;;
39196;SDS011;42889;51.112;13.772;2022-11-15T05:27:16;26.42;;;10.82;;
39196;SDS011;42889;51.112;13.772;2022-11-15T05:30:02;29.50;;;12.65;;
39196;SDS011;42889;51.112;13.772;2022-11-15T05:32:47;31.25;;;12.23;;
39196;SDS011;42889;51.112;13.772;2022-11-15T05:35:34;29.63;;;12.48;;
39196;SDS011;42889;51.112;13.772;2022-11-15T05:38:25;27.90;;;11.25;;
39196;SDS011;42889;51.112;13.772;2022-11-15T05:41:11;28.27;;;11.80;;
39196;SDS011;42889;51.112;13.772;2022-11-15T05:44:02;29.27;;;11.73;;
39196;SDS011;42889;51.112;13.772;2022-11-15T05:46:52;28.08;;;11.57;;
39196;SDS011;42889;51.112;13.772;2022-11-15T05:49:41;33.25;;;12.25;;
39196;SDS011;42889;51.112;13.772;2022-11-15T05:52:57;33.55;;;12.85;;
39196;SDS011;42889;51.112;13.772;2022-11-15T05:55:49;30.10;;;12.35;;
39196;SDS011;42889;51.112;13.772;2022-11-15T05:58:35;31.23;;;12.27;;
39196;SDS011;42889;51.112;13.772;2022-11-15T06:01:22;27.90;;;12.02;;
39196;SDS011;42889;51.112;13.772;2022-11-15T06:04:33;31.17;;;12.65;;
39196;SDS011;42889;51.112;13.772;2022-11-15T06:07:20;31.23;;;12.05;;
39196;SDS011;42889;51.112;13.772;2022-11-15T06:10:07;29.65;;;12.15;;
39196;SDS011;42889;51.112;13.772;2022-11-15T06:12:59;31.13;;;12.85;;
39196;SDS011;42889;51.112;13.772;2022-11-15T06:15:47;27.90;;;11.50;;
39196;SDS011;42889;51.112;13.772;2022-11-15T06:18:35;30.38;;;12.88;;
39196;SDS011;42889;51.112;13.772;2022-11-15T06:21:21;29.95;;;13.02;;
39196;SDS011;42889;51.112;13.772;2022-11-15T06:24:07;29.60;;;11.93;;
39196;SDS011;42889;51.112;13.772;2022-11-15T06:26:53;29.92;;;11.60;;
39196;SDS011;42889;51.112;13.772;2022-11-15T06:29:39;29.90;;;12.48;;
39196;SDS011;42889;51.112;13.772;2022-11-15T06:32:26;30.25;;;12.52;;
39196;SDS011;42889;51.112;13.772;2022-11-15T06:35:14;32.58;;;12.77;;
39196;SDS011;42889;51.112;13.772;2022-11-15T06:38:04;28.83;;;12.50;;
39196;SDS011;42889;51.112;13.772;2022-11-15T06:40:55;33.28;;;13.02;;
39196;SDS011;42889;51.112;13.772;2022-11-15T06:43:46;33.58;;;13.27;;
39196;SDS011;42889;51.112;13.772;2022-11-15T06:49:28;41.08;;;16.30;;
39196;SDS011;42889;51.112;13.772;2022-11-15T06:52:23;37.42;;;14.35;;
39196;SDS011;42889;51.112;13.772;2022-11-15T06:55:13;38.92;;;14.65;;
39196;SDS011;42889;51.112;13.772;2022-11-15T06:58:43;43.50;;;15.95;;
39196;SDS011;42889;51.112;13.772;2022-11-15T07:02:04;37.63;;;14.88;;
39196;SDS011;42889;51.112;13.772;2022-11-15T07:11:13;36.03;;;14.38;;
39196;SDS011;42889;51.112;13.772;2022-11-15T07:18:44;34.38;;;13.48;;
39196;SDS011;42889;51.112;13.772;2022-11-15T07:55:00;29.10;;;12.35;;
39196;SDS011;42889;51.112;13.772;2022-11-15T07:57:45;28.52;;;12.52;;
39196;SDS011;42889;51.112;13.772;2022-11-15T08:00:35;34.30;;;13.05;;
39196;SDS011;42889;51.112;13.772;2022-11-15T08:06:07;26.75;;;12.02;;
39196;SDS011;42889;51.112;13.772;2022-11-15T08:08:53;31.17;;;12.18;;
39196;SDS011;42889;51.112;13.772;2022-11-15T08:11:38;28.00;;;11.18;;
39196;SDS011;42889;51.112;13.772;2022-11-15T08:14:24;30.33;;;12.32;;
39196;SDS011;42889;51.112;13.772;2022-11-15T08:17:10;25.73;;;11.32;;
39196;SDS011;42889;51.112;13.772;2022-11-15T08:19:55;26.02;;;11.68;;
39196;SDS011;42889;51.112;13.772;2022-11-15T08:22:41;25.48;;;11.13;;
39196;SDS011;42889;51.112;13.772;2022-11-15T08:25:27;23.20;;;9.95;;
39196;SDS011;42889;51.112;13.772;2022-11-15T08:28:15;25.88;;;10.80;;
39196;SDS011;42889;51.112;13.772;2022-11-15T08:31:02;22.30;;;10.07;;
39196;SDS011;42889;51.112;13.772;2022-11-15T08:33:48;23.05;;;9.68;;
39196;SDS011;42889;51.112;13.772;2022-11-15T08:36:36;22.92;;;9.65;;
39196;SDS011;42889;51.112;13.772;2022-11-15T08:39:35;20.38;;;8.98;;
39196;SDS011;42889;51.112;13.772;2022-11-15T08:43:00;17.83;;;8.50;;
39196;SDS011;42889;51.112;13.772;2022-11-15T08:46:13;18.38;;;7.82;;
39196;SDS011;42889;51.112;13.772;2022-11-15T08:48:58;18.77;;;8.68;;
39196;SDS011;42889;51.112;13.772;2022-11-15T08:52:10;18.83;;;7.93;;
39196;SDS011;42889;51.112;13.772;2022-11-15T09:07:16;13.90;;;6.38;;
39196;SDS011;42889;51.112;13.772;2022-11-15T09:13:38;12.30;;;5.80;;
39196;SDS011;42889;51.112;13.772;2022-11-15T09:16:29;13.75;;;6.38;;
39196;SDS011;42889;51.112;13.772;2022-11-15T09:19:34;13.05;;;6.90;;
39196;SDS011;42889;51.112;13.772;2022-11-15T09:22:20;14.05;;;7.25;;
39196;SDS011;42889;51.112;13.772;2022-11-15T09:25:05;13.38;;;6.85;;
39196;SDS011;42889;51.112;13.772;2022-11-15T09:27:55;14.70;;;6.78;;
39196;SDS011;42889;51.112;13.772;2022-11-15T09:30:40;15.20;;;7.13;;
39196;SDS011;42889;51.112;13.772;2022-11-15T09:33:26;16.25;;;7.30;;
39196;SDS011;42889;51.112;13.772;2022-11-15T09:36:13;13.35;;;6.20;;
39196;SDS011;42889;51.112;13.772;2022-11-15T09:38:58;13.65;;;6.65;;
39196;SDS011;42889;51.112;13.772;2022-11-15T09:41:50;12.88;;;6.50;;
39196;SDS011;42889;51.112;13.772;2022-11-15T09:45:10;13.40;;;6.10;;
39196;SDS011;42889;51.112;13.772;2022-11-15T09:51:24;14.48;;;6.13;;
39196;SDS011;42889;51.112;13.772;2022-11-15T09:54:03;14.20;;;6.15;;
39196;SDS011;42889;51.112;13.772;2022-11-15T09:56:57;11.93;;;5.75;;
39196;SDS011;42889;51.112;13.772;2022-11-15T10:05:00;13.38;;;6.05;;
39196;SDS011;42889;51.112;13.772;2022-11-15T10:07:31;12.95;;;5.78;;
39196;SDS011;42889;51.112;13.772;2022-11-15T10:12:55;13.43;;;6.20;;
39196;SDS011;42889;51.112;13.772;2022-11-15T10:15:22;13.93;;;6.53;;
39196;SDS011;42889;51.112;13.772;2022-11-15T10:18:24;12.18;;;5.82;;
39196;SDS011;42889;51.112;13.772;2022-11-15T10:20:56;12.15;;;5.78;;
39196;SDS011;42889;51.112;13.772;2022-11-15T10:23:26;13.65;;;6.05;;
39196;SDS011;42889;51.112;13.772;2022-11-15T10:25:55;12.77;;;6.03;;
39196;SDS011;42889;51.112;13.772;2022-11-15T10:28:31;12.90;;;5.53;;
39196;SDS011;42889;51.112;13.772;2022-11-15T10:30:59;14.75;;;6.55;;
39196;SDS011;42889;51.112;13.772;2022-11-15T10:33:34;12.52;;;6.35;;
39196;SDS011;42889;51.112;13.772;2022-11-15T10:41:18;14.30;;;6.20;;
39196;SDS011;42889;51.112;13.772;2022-11-15T10:43:45;15.52;;;6.53;;
39196;SDS011;42889;51.112;13.772;2022-11-15T10:46:33;13.60;;;6.30;;
39196;SDS011;42889;51.112;13.772;2022-11-15T10:49:17;11.30;;;5.50;;
39196;SDS011;42889;51.112;13.772;2022-11-15T10:51:49;13.65;;;6.18;;
39196;SDS011;42889;51.112;13.772;2022-11-15T10:54:21;13.90;;;5.78;;
39196;SDS011;42889;51.112;13.772;2022-11-15T10:56:55;10.98;;;5.45;;
39196;SDS011;42889;51.112;13.772;2022-11-15T10:59:29;13.15;;;5.85;;
39196;SDS011;42889;51.112;13.772;2022-11-15T11:04:55;12.35;;;5.75;;
39196;SDS011;42889;51.112;13.772;2022-11-15T11:07:24;12.90;;;6.05;;
39196;SDS011;42889;51.112;13.772;2022-11-15T11:10:00;14.77;;;6.57;;
39196;SDS011;42889;51.112;13.772;2022-11-15T11:13:21;14.32;;;6.70;;
39196;SDS011;42889;51.112;13.772;2022-11-15T11:18:33;14.68;;;6.57;;
39196;SDS011;42889;51.112;13.772;2022-11-15T11:21:13;14.40;;;6.80;;
39196;SDS011;42889;51.112;13.772;2022-11-15T11:23:52;14.43;;;6.40;;
39196;SDS011;42889;51.112;13.772;2022-11-15T11:29:02;13.48;;;6.45;;
39196;SDS011;42889;51.112;13.772;2022-11-15T11:42:43;14.38;;;6.35;;
39196;SDS011;42889;51.112;13.772;2022-11-15T11:48:12;12.13;;;5.80;;
39196;SDS011;42889;51.112;13.772;2022-11-15T11:50:41;12.55;;;6.00;;
39196;SDS011;42889;51.112;13.772;2022-11-15T11:53:12;12.95;;;6.22;;
39196;SDS011;42889;51.112;13.772;2022-11-15T11:55:49;12.23;;;5.72;;
39196;SDS011;42889;51.112;13.772;2022-11-15T11:58:20;12.05;;;5.68;;
39196;SDS011;42889;51.112;13.772;2022-11-15T12:00:54;12.77;;;5.57;;
39196;SDS011;42889;51.112;13.772;2022-11-15T12:03:28;11.30;;;5.13;;
39196;SDS011;42889;51.112;13.772;2022-11-15T12:06:24;10.98;;;5.28;;
39196;SDS011;42889;51.112;13.772;2022-11-15T12:16:56;11.70;;;5.68;;
39196;SDS011;42889;51.112;13.772;2022-11-15T12:19:24;11.30;;;5.72;;
39196;SDS011;42889;51.112;13.772;2022-11-15T12:24:45;11.70;;;6.00;;
39196;SDS011;42889;51.112;13.772;2022-11-15T12:29:58;11.02;;;5.25;;
39196;SDS011;42889;51.112;13.772;2022-11-15T12:35:05;11.18;;;5.60;;
39196;SDS011;42889;51.112;13.772;2022-11-15T12:37:47;12.80;;;5.38;;
39196;SDS011;42889;51.112;13.772;2022-11-15T12:40:23;12.07;;;5.20;;
39196;SDS011;42889;51.112;13.772;2022-11-15T12:42:58;11.27;;;5.28;;
39196;SDS011;42889;51.112;13.772;2022-11-15T12:45:48;13.15;;;6.13;;
39196;SDS011;42889;51.112;13.772;2022-11-15T13:11:54;11.05;;;5.22;;
39196;SDS011;42889;51.112;13.772;2022-11-15T13:14:39;11.90;;;5.15;;
39196;SDS011;42889;51.112;13.772;2022-11-15T13:22:25;11.82;;;5.18;;
39196;SDS011;42889;51.112;13.772;2022-11-15T13:30:49;12.85;;;5.60;;
39196;SDS011;42889;51.112;13.772;2022-11-15T13:36:02;13.13;;;5.18;;
39196;SDS011;42889;51.112;13.772;2022-11-15T13:38:34;12.30;;;5.80;;
39196;SDS011;42889;51.112;13.772;2022-11-15T13:43:47;13.02;;;5.57;;
39196;SDS011;42889;51.112;13.772;2022-11-15T13:48:51;11.02;;;5.13;;
39196;SDS011;42889;51.112;13.772;2022-11-15T13:54:22;12.20;;;5.60;;
39196;SDS011;42889;51.112;13.772;2022-11-15T13:57:05;12.63;;;5.95;;
39196;SDS011;42889;51.112;13.772;2022-11-15T13:59:46;12.70;;;5.47;;
39196;SDS011;42889;51.112;13.772;2022-11-15T14:02:20;14.45;;;6.05;;
39196;SDS011;42889;51.112;13.772;2022-11-15T14:04:55;12.63;;;5.70;;
39196;SDS011;42889;51.112;13.772;2022-11-15T14:07:26;13.52;;;5.70;;
39196;SDS011;42889;51.112;13.772;2022-11-15T14:09:55;13.90;;;5.75;;
39196;SDS011;42889;51.112;13.772;2022-11-15T14:15:00;14.60;;;6.50;;
39196;SDS011;42889;51.112;13.772;2022-11-15T14:17:45;13.48;;;6.18;;
39196;SDS011;42889;51.112;13.772;2022-11-15T14:23:05;14.00;;;5.80;;
39196;SDS011;42889;51.112;13.772;2022-11-15T14:25:54;13.85;;;5.72;;
39196;SDS011;42889;51.112;13.772;2022-11-15T14:30:50;15.48;;;5.60;;
39196;SDS011;42889;51.112;13.772;2022-11-15T14:33:22;14.30;;;6.22;;
39196;SDS011;42889;51.112;13.772;2022-11-15T14:36:02;14.52;;;6.45;;
39196;SDS011;42889;51.112;13.772;2022-11-15T14:38:31;18.60;;;6.93;;
39196;SDS011;42889;51.112;13.772;2022-11-15T14:40:59;15.40;;;6.88;;
39196;SDS011;42889;51.112;13.772;2022-11-15T14:43:25;15.35;;;6.90;;
39196;SDS011;42889;51.112;13.772;2022-11-15T14:45:52;14.27;;;6.40;;
39196;SDS011;42889;51.112;13.772;2022-11-15T14:48:19;15.05;;;6.55;;
39196;SDS011;42889;51.112;13.772;2022-11-15T14:50:46;16.85;;;7.60;;
39196;SDS011;42889;51.112;13.772;2022-11-15T14:53:16;17.08;;;7.53;;
39196;SDS011;42889;51.112;13.772;2022-11-15T14:55:44;16.45;;;7.15;;
39196;SDS011;42889;51.112;13.772;2022-11-15T14:58:11;16.55;;;7.82;;
39196;SDS011;42889;51.112;13.772;2022-11-15T15:00:38;15.70;;;7.03;;
39196;SDS011;42889;51.112;13.772;2022-11-15T15:03:06;18.30;;;7.35;;
39196;SDS011;42889;51.112;13.772;2022-11-15T15:08:02;19.08;;;8.82;;
39196;SDS011;42889;51.112;13.772;2022-11-15T15:10:36;17.80;;;8.18;;
39196;SDS011;42889;51.112;13.772;2022-11-15T15:13:18;19.98;;;9.02;;
39196;SDS011;42889;51.112;13.772;2022-11-15T15:15:47;18.27;;;8.40;;
39196;SDS011;42889;51.112;13.772;2022-11-15T15:18:15;20.40;;;8.63;;
39196;SDS011;42889;51.112;13.772;2022-11-15T15:20:42;19.98;;;8.70;;
39196;SDS011;42889;51.112;13.772;2022-11-15T15:23:15;20.80;;;9.03;;
39196;SDS011;42889;51.112;13.772;2022-11-15T15:25:44;17.25;;;7.47;;
39196;SDS011;42889;51.112;13.772;2022-11-15T15:28:12;16.58;;;7.38;;
39196;SDS011;42889;51.112;13.772;2022-11-15T15:30:39;18.13;;;8.23;;
39196;SDS011;42889;51.112;13.772;2022-11-15T15:33:06;20.67;;;8.43;;
39196;SDS011;42889;51.112;13.772;2022-11-15T15:35:55;20.35;;;8.10;;
39196;SDS011;42889;51.112;13.772;2022-11-15T15:43:29;19.38;;;8.77;;
39196;SDS011;42889;51.112;13.772;2022-11-15T15:46:17;19.92;;;8.52;;
39196;SDS011;42889;51.112;13.772;2022-11-15T15:49:12;17.55;;;8.10;;
39196;SDS011;42889;51.112;13.772;2022-11-15T15:51:38;22.00;;;8.52;;
39196;SDS011;42889;51.112;13.772;2022-11-15T15:54:05;22.17;;;9.68;;
39196;SDS011;42889;51.112;13.772;2022-11-15T15:56:32;19.98;;;9.15;;
39196;SDS011;42889;51.112;13.772;2022-11-15T15:58:59;22.48;;;9.15;;
39196;SDS011;42889;51.112;13.772;2022-11-15T16:01:26;22.10;;;9.05;;
39196;SDS011;42889;51.112;13.772;2022-11-15T16:03:52;23.95;;;9.18;;
39196;SDS011;42889;51.112;13.772;2022-11-15T16:06:26;23.85;;;9.23;;
39196;SDS011;42889;51.112;13.772;2022-11-15T16:09:02;20.48;;;9.05;;
39196;SDS011;42889;51.112;13.772;2022-11-15T16:11:45;26.25;;;10.00;;
39196;SDS011;42889;51.112;13.772;2022-11-15T16:14:13;22.90;;;9.68;;
39196;SDS011;42889;51.112;13.772;2022-11-15T16:16:39;22.42;;;9.57;;
39196;SDS011;42889;51.112;13.772;2022-11-15T16:19:07;23.15;;;10.10;;
39196;SDS011;42889;51.112;13.772;2022-11-15T16:21:36;22.80;;;8.82;;
39196;SDS011;42889;51.112;13.772;2022-11-15T16:24:03;25.13;;;10.13;;
39196;SDS011;42889;51.112;13.772;2022-11-15T16:26:30;24.65;;;9.98;;
39196;SDS011;42889;51.112;13.772;2022-11-15T16:29:01;24.05;;;11.32;;
39196;SDS011;42889;51.112;13.772;2022-11-15T16:31:28;24.60;;;10.15;;
39196;SDS011;42889;51.112;13.772;2022-11-15T16:33:54;23.65;;;10.30;;
39196;SDS011;42889;51.112;13.772;2022-11-15T16:36:22;24.55;;;10.85;;
39196;SDS011;42889;51.112;13.772;2022-11-15T16:38:56;25.27;;;11.13;;
39196;SDS011;42889;51.112;13.772;2022-11-15T16:41:23;24.23;;;10.20;;
39196;SDS011;42889;51.112;13.772;2022-11-15T16:43:51;24.52;;;11.00;;
39196;SDS011;42889;51.112;13.772;2022-11-15T16:46:18;27.90;;;10.52;;
39196;SDS011;42889;51.112;13.772;2022-11-15T17:45:10;25.33;;;10.65;;
39196;SDS011;42889;51.112;13.772;2022-11-15T17:47:37;26.17;;;10.35;;
39196;SDS011;42889;51.112;13.772;2022-11-15T17:50:04;26.58;;;9.93;;
39196;SDS011;42889;51.112;13.772;2022-11-15T17:52:32;25.80;;;11.45;;
39196;SDS011;42889;51.112;13.772;2022-11-15T17:54:59;26.08;;;10.82;;
39196;SDS011;42889;51.112;13.772;2022-11-15T17:57:26;24.30;;;10.82;;
39196;SDS011;42889;51.112;13.772;2022-11-15T18:15:36;26.07;;;11.10;;
39196;SDS011;42889;51.112;13.772;2022-11-15T18:18:03;28.33;;;11.32;;
39196;SDS011;42889;51.112;13.772;2022-11-15T18:20:30;29.17;;;11.35;;
39196;SDS011;42889;51.112;13.772;2022-11-15T18:22:56;30.30;;;11.93;;
39196;SDS011;42889;51.112;13.772;2022-11-15T18:25:23;26.38;;;11.02;;
39196;SDS011;42889;51.112;13.772;2022-11-15T18:39:33;27.50;;;10.65;;
39196;SDS011;42889;51.112;13.772;2022-11-15T18:42:00;25.23;;;10.25;;
39196;SDS011;42889;51.112;13.772;2022-11-15T18:44:28;25.42;;;10.82;;
39196;SDS011;42889;51.112;13.772;2022-11-15T18:46:58;26.88;;;10.88;;
39196;SDS011;42889;51.112;13.772;2022-11-15T18:49:26;26.85;;;11.63;;
39196;SDS011;42889;51.112;13.772;2022-11-15T18:51:53;25.60;;;10.00;;
39196;SDS011;42889;51.112;13.772;2022-11-15T18:54:20;24.40;;;10.65;;
39196;SDS011;42889;51.112;13.772;2022-11-15T18:59:17;25.70;;;10.00;;
39196;SDS011;42889;51.112;13.772;2022-11-15T19:01:45;26.27;;;10.63;;
39196;SDS011;42889;51.112;13.772;2022-11-15T19:04:14;25.27;;;10.70;;
39196;SDS011;42889;51.112;13.772;2022-11-15T19:06:46;24.88;;;10.32;;
39196;SDS011;42889;51.112;13.772;2022-11-15T19:09:14;28.42;;;10.90;;
39196;SDS011;42889;51.112;13.772;2022-11-15T19:11:43;29.70;;;10.80;;
39196;SDS011;42889;51.112;13.772;2022-11-15T19:14:12;26.52;;;11.32;;
39196;SDS011;42889;51.112;13.772;2022-11-15T19:16:46;28.45;;;10.95;;
39196;SDS011;42889;51.112;13.772;2022-11-15T19:19:21;29.10;;;10.60;;
39196;SDS011;42889;51.112;13.772;2022-11-15T19:21:50;31.63;;;11.70;;
39196;SDS011;42889;51.112;13.772;2022-11-15T19:24:18;27.17;;;10.63;;
39196;SDS011;42889;51.112;13.772;2022-11-15T19:26:45;27.30;;;11.23;;
39196;SDS011;42889;51.112;13.772;2022-11-15T19:29:12;28.60;;;10.70;;
39196;SDS011;42889;51.112;13.772;2022-11-15T19:31:42;24.40;;;10.73;;
39196;SDS011;42889;51.112;13.772;2022-11-15T19:34:09;25.00;;;9.70;;
39196;SDS011;42889;51.112;13.772;2022-11-15T19:36:37;25.17;;;10.48;;
39196;SDS011;42889;51.112;13.772;2022-11-15T19:39:07;25.73;;;9.60;;
39196;SDS011;42889;51.112;13.772;2022-11-15T19:41:39;26.58;;;10.20;;
39196;SDS011;42889;51.112;13.772;2022-11-15T19:44:08;26.58;;;10.93;;
39196;SDS011;42889;51.112;13.772;2022-11-15T19:46:35;23.75;;;9.15;;
39196;SDS011;42889;51.112;13.772;2022-11-15T19:49:03;26.00;;;10.10;;
39196;SDS011;42889;51.112;13.772;2022-11-15T19:51:33;23.40;;;9.43;;
39196;SDS011;42889;51.112;13.772;2022-11-15T19:54:00;23.13;;;9.30;;
39196;SDS011;42889;51.112;13.772;2022-11-15T19:56:32;22.35;;;9.65;;
39196;SDS011;42889;51.112;13.772;2022-11-15T19:59:00;25.35;;;10.15;;
39196;SDS011;42889;51.112;13.772;2022-11-15T20:01:29;22.17;;;9.10;;
39196;SDS011;42889;51.112;13.772;2022-11-15T20:03:57;22.08;;;9.25;;
39196;SDS011;42889;51.112;13.772;2022-11-15T20:06:29;24.00;;;9.50;;
39196;SDS011;42889;51.112;13.772;2022-11-15T20:09:00;20.95;;;8.90;;
39196;SDS011;42889;51.112;13.772;2022-11-15T20:11:27;24.10;;;9.35;;
39196;SDS011;42889;51.112;13.772;2022-11-15T20:13:55;22.88;;;9.32;;
39196;SDS011;42889;51.112;13.772;2022-11-15T20:16:27;22.08;;;9.43;;
39196;SDS011;42889;51.112;13.772;2022-11-15T20:18:54;22.60;;;9.45;;
39196;SDS011;42889;51.112;13.772;2022-11-15T20:21:22;20.05;;;8.75;;
39196;SDS011;42889;51.112;13.772;2022-11-15T20:23:49;21.73;;;8.60;;
39196;SDS011;42889;51.112;13.772;2022-11-15T20:26:17;23.35;;;8.85;;
39196;SDS011;42889;51.112;13.772;2022-11-15T20:28:45;20.33;;;8.23;;
39196;SDS011;42889;51.112;13.772;2022-11-15T20:31:13;22.55;;;8.50;;
39196;SDS011;42889;51.112;13.772;2022-11-15T20:33:40;21.38;;;8.60;;
39196;SDS011;42889;51.112;13.772;2022-11-15T20:36:11;23.83;;;9.82;;
39196;SDS011;42889;51.112;13.772;2022-11-15T20:38:41;24.58;;;9.60;;
39196;SDS011;42889;51.112;13.772;2022-11-15T20:41:09;24.83;;;9.60;;
39196;SDS011;42889;51.112;13.772;2022-11-15T20:43:39;22.90;;;9.63;;
39196;SDS011;42889;51.112;13.772;2022-11-15T20:46:09;26.67;;;10.65;;